createdAt,value
2023-05-13T00:01:44.266Z,102026.97
2023-05-13T00:04:11.220Z,102019.06
2023-05-13T00:06:38.414Z,102019.88
2023-05-13T00:09:05.417Z,102019.84
2023-05-13T00:11:32.339Z,102015.41
2023-05-13T00:13:59.229Z,102011.00
2023-05-13T00:16:27.765Z,102016.22
2023-05-13T00:18:55.722Z,102008.28
2023-05-13T00:21:23.469Z,102004.78
2023-05-13T00:23:50.432Z,102013.47
2023-05-13T00:26:17.367Z,102008.22
2023-05-13T00:28:47.342Z,102001.16
2023-05-13T00:31:14.257Z,102010.78
2023-05-13T00:33:41.162Z,102008.09
2023-05-13T00:36:10.147Z,102011.56
2023-05-13T00:38:38.009Z,102007.16
2023-05-13T00:41:05.896Z,102021.94
2023-05-13T00:43:32.779Z,102013.16
2023-05-13T00:46:00.245Z,102022.75
2023-05-13T00:48:27.461Z,102013.09
2023-05-13T00:50:54.383Z,102013.94
2023-05-13T00:53:21.627Z,102019.16
2023-05-13T00:55:48.584Z,102023.50
2023-05-13T00:58:17.306Z,102021.72
2023-05-13T01:01:34.400Z,102022.53
2023-05-13T01:04:46.424Z,102021.63
2023-05-13T01:07:24.416Z,102028.56
2023-05-13T01:10:03.358Z,102021.56
2023-05-13T01:12:34.861Z,102025.91
2023-05-13T01:15:12.545Z,102020.63
2023-05-13T01:18:05.564Z,102023.16
2023-05-13T01:20:34.634Z,102025.75
2023-05-13T01:23:03.924Z,102021.38
2023-05-13T01:25:31.168Z,102024.00
2023-05-13T01:27:58.402Z,102024.00
2023-05-13T01:30:26.699Z,102023.97
2023-05-13T01:32:54.087Z,102017.81
2023-05-13T01:35:21.675Z,102024.84
2023-05-13T01:37:50.213Z,102021.28
2023-05-13T01:40:31.091Z,102033.50
2023-05-13T01:43:02.681Z,102026.50
2023-05-13T01:45:30.439Z,102030.88
2023-05-13T01:47:58.059Z,102036.06
2023-05-13T01:50:29.280Z,102039.50
2023-05-13T01:52:57.384Z,102033.38
2023-05-13T01:55:24.502Z,102045.56
2023-05-13T01:57:51.856Z,102039.34
2023-05-13T02:00:18.979Z,102037.63
2023-05-13T02:02:49.181Z,102043.69
2023-05-13T02:05:16.748Z,102042.75
2023-05-13T02:07:44.417Z,102039.25
2023-05-13T02:10:11.788Z,102046.22
2023-05-13T02:12:38.704Z,102040.91
2023-05-13T02:15:06.418Z,102047.84
2023-05-13T02:17:33.366Z,102052.16
2023-05-13T02:20:00.453Z,102049.50
2023-05-13T02:22:27.396Z,102045.97
2023-05-13T02:24:54.324Z,102050.28
2023-05-13T02:27:21.237Z,102046.72
2023-05-13T02:29:48.151Z,102044.91
2023-05-13T02:32:15.136Z,102038.75
2023-05-13T02:34:42.053Z,102038.69
2023-05-13T02:37:09.118Z,102042.13
2023-05-13T02:39:43.606Z,102045.53
2023-05-13T02:42:11.269Z,102048.16
2023-05-13T02:44:38.169Z,102043.72
2023-05-13T02:47:05.671Z,102048.03
2023-05-13T02:49:32.581Z,102050.59
2023-05-13T02:51:59.585Z,102053.16
2023-05-13T02:54:33.058Z,102052.28
2023-05-13T02:56:59.970Z,102046.97
2023-05-13T02:59:27.080Z,102050.41
2023-05-13T03:01:53.975Z,102050.41
2023-05-13T03:04:20.881Z,102055.63
2023-05-13T03:06:48.265Z,102055.59
2023-05-13T03:09:15.434Z,102043.34
2023-05-13T03:11:42.332Z,102052.94
2023-05-13T03:14:09.211Z,102046.81
2023-05-13T03:16:38.170Z,102049.38
2023-05-13T03:19:05.209Z,102051.97
2023-05-13T03:21:32.135Z,102058.06
2023-05-13T03:23:59.117Z,102054.56
2023-05-13T03:26:26.784Z,102058.88
2023-05-13T03:28:53.676Z,102058.00
2023-05-13T03:31:21.587Z,102058.84
2023-05-13T03:33:48.956Z,102058.84
2023-05-13T03:36:15.914Z,102060.56
2023-05-13T03:38:42.951Z,102064.06
2023-05-13T03:41:09.950Z,102057.97
2023-05-13T03:43:36.926Z,102072.78
2023-05-13T03:46:08.198Z,102069.28
2023-05-13T03:48:35.473Z,102067.56
2023-05-13T03:51:03.649Z,102071.06
2023-05-13T03:53:30.607Z,102070.19
2023-05-13T03:55:57.974Z,102075.47
2023-05-13T03:58:24.878Z,102073.75
2023-05-13T04:00:51.797Z,102084.25
2023-05-13T04:03:19.249Z,102086.16
2023-05-13T04:05:47.374Z,102086.44
2023-05-13T04:08:14.533Z,102092.94
2023-05-13T04:10:41.437Z,102083.81
2023-05-13T04:13:08.358Z,102079.09
2023-05-13T04:15:35.328Z,102078.59
2023-05-13T04:18:02.329Z,102083.34
2023-05-13T04:20:29.270Z,102087.91
2023-05-13T04:22:56.480Z,102085.41
2023-05-13T04:25:23.427Z,102083.66
2023-05-13T04:27:50.451Z,102100.31
2023-05-13T04:30:25.162Z,102097.69
2023-05-13T04:32:52.120Z,102102.97
2023-05-13T04:35:20.129Z,102103.88
2023-05-13T04:37:52.027Z,102095.94
2023-05-13T04:40:20.183Z,102107.25
2023-05-13T04:42:54.452Z,102109.84
2023-05-13T04:45:25.360Z,102114.16
2023-05-13T04:47:52.421Z,102112.41
2023-05-13T04:50:19.616Z,102121.13
2023-05-13T04:52:47.638Z,102119.38
2023-05-13T04:55:16.611Z,102118.47
2023-05-13T04:57:43.574Z,102122.00
2023-05-13T05:00:12.136Z,102125.53
2023-05-13T05:02:40.860Z,102119.41
2023-05-13T05:05:08.151Z,102125.56
2023-05-13T05:07:35.068Z,102129.97
2023-05-13T05:10:02.055Z,102127.38
2023-05-13T05:12:32.336Z,102135.28
2023-05-13T05:14:59.253Z,102142.31
2023-05-13T05:17:29.212Z,102138.91
2023-05-13T05:19:56.351Z,102139.00
2023-05-13T05:22:24.315Z,102141.66
2023-05-13T05:24:51.247Z,102137.41
2023-05-13T05:27:19.306Z,102141.00
2023-05-13T05:29:46.218Z,102144.56
2023-05-13T05:32:13.163Z,102134.06
2023-05-13T05:34:40.130Z,102143.84
2023-05-13T05:37:07.149Z,102146.50
2023-05-13T05:39:37.074Z,102146.50
2023-05-13T05:42:04.198Z,102158.78
2023-05-13T05:44:31.127Z,102153.63
2023-05-13T05:46:57.992Z,102144.94
2023-05-13T05:49:25.199Z,102146.78
2023-05-13T05:51:52.359Z,102152.09
2023-05-13T05:54:20.745Z,102146.84
2023-05-13T05:56:48.288Z,102143.41
2023-05-13T05:59:15.341Z,102144.34
2023-05-13T06:01:42.263Z,102147.00
2023-05-13T06:04:09.460Z,102143.53
2023-05-13T06:06:36.733Z,102140.06
2023-05-13T06:09:05.800Z,102141.88
2023-05-13T06:11:33.829Z,102146.31
2023-05-13T06:14:00.809Z,102138.47
2023-05-13T06:16:27.833Z,102132.38
2023-05-13T06:18:54.775Z,102139.44
2023-05-13T06:21:21.765Z,102136.81
2023-05-13T06:23:49.565Z,102144.75
2023-05-13T06:26:16.520Z,102140.41
2023-05-13T06:28:43.371Z,102144.84
2023-05-13T06:31:10.303Z,102146.66
2023-05-13T06:33:37.722Z,102148.44
2023-05-13T06:36:05.223Z,102152.88
2023-05-13T06:38:34.509Z,102150.25
2023-05-13T06:41:01.815Z,102145.88
2023-05-13T06:43:34.742Z,102152.03
2023-05-13T06:46:12.940Z,102147.66
2023-05-13T06:48:39.905Z,102156.47
2023-05-13T06:51:07.157Z,102156.44
2023-05-13T06:53:34.038Z,102155.56
2023-05-13T06:56:00.982Z,102152.91
2023-05-13T06:58:27.877Z,102154.63
2023-05-13T07:00:54.819Z,102162.50
2023-05-13T07:03:21.800Z,102161.59
2023-05-13T07:05:48.739Z,102159.78
2023-05-13T07:08:17.934Z,102157.09
2023-05-13T07:10:45.128Z,102161.41
2023-05-13T07:13:12.381Z,102159.56
2023-05-13T07:15:39.384Z,102149.84
2023-05-13T07:18:06.383Z,102166.44
2023-05-13T07:20:33.405Z,102146.22
2023-05-13T07:23:00.315Z,102154.06
2023-05-13T07:25:27.231Z,102162.75
2023-05-13T07:27:54.201Z,102158.25
2023-05-13T07:30:21.473Z,102154.66
2023-05-13T07:32:48.673Z,102152.78
2023-05-13T07:35:17.094Z,102157.13
2023-05-13T07:37:47.518Z,102150.94
2023-05-13T07:40:14.553Z,102153.44
2023-05-13T07:42:41.496Z,102153.34
2023-05-13T07:45:09.163Z,102148.03
2023-05-13T07:47:36.224Z,102147.06
2023-05-13T07:50:03.604Z,102146.06
2023-05-13T07:52:30.554Z,102145.97
2023-05-13T07:54:57.481Z,102147.63
2023-05-13T07:57:24.438Z,102151.91
2023-05-13T07:59:52.709Z,102150.94
2023-05-13T08:02:19.974Z,102147.31
2023-05-13T08:04:47.269Z,102140.25
2023-05-13T08:07:14.245Z,102145.41
2023-05-13T08:09:41.150Z,102147.00
2023-05-13T08:12:08.271Z,102146.84
2023-05-13T08:14:36.104Z,102148.44
2023-05-13T08:17:06.318Z,102151.84
2023-05-13T08:19:33.241Z,102147.28
2023-05-13T08:22:00.184Z,102146.25
2023-05-13T08:24:27.099Z,102146.13
2023-05-13T08:26:54.010Z,102138.88
2023-05-13T08:29:20.896Z,102127.22
2023-05-13T08:31:47.849Z,102134.06
2023-05-13T08:34:14.972Z,102133.03
2023-05-13T08:36:41.842Z,102140.81
2023-05-13T08:39:08.807Z,102134.53
2023-05-13T08:41:35.828Z,102125.63
2023-05-13T08:44:06.808Z,102132.44
2023-05-13T08:46:35.053Z,102140.16
2023-05-13T08:49:02.449Z,102138.28
2023-05-13T08:51:29.453Z,102143.28
2023-05-13T08:53:56.690Z,102143.09
2023-05-13T08:56:25.640Z,102141.13
2023-05-13T08:58:52.524Z,102140.06
2023-05-13T09:01:19.554Z,102138.97
2023-05-13T09:04:00.005Z,102139.78
2023-05-13T09:06:26.938Z,102133.47
2023-05-13T09:08:54.877Z,102131.53
2023-05-13T09:11:22.083Z,102146.59
2023-05-13T09:14:11.748Z,102140.41
2023-05-13T09:16:38.953Z,102141.19
2023-05-13T09:19:08.211Z,102135.75
2023-05-13T09:21:36.057Z,102147.09
2023-05-13T09:24:18.062Z,102133.66
2023-05-13T09:26:46.089Z,102128.13
2023-05-13T09:29:22.685Z,102135.06
2023-05-13T09:31:54.978Z,102120.84
2023-05-13T09:34:34.254Z,102119.81
2023-05-13T09:37:06.886Z,102127.59
2023-05-13T09:39:41.661Z,102124.88
2023-05-13T09:42:16.862Z,102124.69
2023-05-13T09:44:45.913Z,102121.91
2023-05-13T09:47:17.038Z,102116.50
2023-05-13T09:49:47.041Z,102109.28
2023-05-13T09:52:17.094Z,102115.34
2023-05-13T09:54:44.839Z,102117.88
2023-05-13T09:57:13.836Z,102109.81
2023-05-13T09:59:41.546Z,102108.88
2023-05-13T10:02:08.886Z,102101.59
2023-05-13T10:04:35.847Z,102097.06
2023-05-13T10:07:05.092Z,102100.53
2023-05-13T10:09:36.752Z,102100.31
2023-05-13T10:12:07.585Z,102101.13
2023-05-13T10:14:37.426Z,102097.44
2023-05-13T10:17:05.456Z,102098.28
2023-05-13T10:19:32.951Z,102096.41
2023-05-13T10:22:00.396Z,102094.47
2023-05-13T10:24:28.977Z,102103.34
2023-05-13T10:26:58.050Z,102097.06
2023-05-13T10:29:26.580Z,102098.84
2023-05-13T10:31:54.425Z,102092.53
2023-05-13T10:34:22.949Z,102092.44
2023-05-13T10:37:14.083Z,102097.69
2023-05-13T10:40:47.607Z,102095.00
2023-05-13T10:43:38.192Z,102078.97
2023-05-13T10:46:12.445Z,102084.22
2023-05-13T10:48:43.004Z,102084.84
2023-05-13T10:51:14.906Z,102085.56
2023-05-13T10:53:52.899Z,102070.44
2023-05-13T10:56:26.065Z,102074.56
2023-05-13T10:59:02.443Z,102084.22
2023-05-13T11:01:31.191Z,102084.00
2023-05-13T11:04:01.352Z,102090.16
2023-05-13T11:06:38.529Z,102075.97
2023-05-13T11:09:28.519Z,102091.13
2023-05-13T11:11:57.908Z,102091.13
2023-05-13T11:14:31.031Z,102075.16
2023-05-13T11:17:01.076Z,102077.78
2023-05-13T11:19:34.646Z,102060.00
2023-05-13T11:22:13.597Z,102081.19
2023-05-13T11:24:41.264Z,102079.34
2023-05-13T11:27:20.889Z,102082.78
2023-05-13T11:29:57.957Z,102071.22
2023-05-13T11:32:58.081Z,102073.06
2023-05-13T11:35:27.460Z,102062.19
2023-05-13T11:37:58.238Z,102060.22
2023-05-13T11:40:35.058Z,102063.75
2023-05-13T11:43:02.388Z,102071.66
2023-05-13T11:45:30.428Z,102071.66
2023-05-13T11:47:57.895Z,102068.91
2023-05-13T11:50:30.135Z,102066.34
2023-05-13T11:53:00.123Z,102064.63
2023-05-13T11:55:32.705Z,102062.84
2023-05-13T11:58:00.287Z,102054.97
2023-05-13T12:00:32.213Z,102060.31
2023-05-13T12:03:00.644Z,102049.56
2023-05-13T12:05:28.140Z,102046.88
2023-05-13T12:07:59.280Z,102029.03
2023-05-13T12:10:26.743Z,102038.59
2023-05-13T12:12:54.284Z,102046.50
2023-05-13T12:15:22.241Z,102052.56
2023-05-13T12:17:49.855Z,102026.84
2023-05-13T12:20:22.093Z,102023.16
2023-05-13T12:22:50.979Z,102033.59
2023-05-13T12:25:37.498Z,102034.31
2023-05-13T12:28:24.655Z,102027.97
2023-05-13T12:31:03.342Z,102039.38
2023-05-13T12:33:34.238Z,102040.88
2023-05-13T12:36:32.107Z,102029.19
2023-05-13T12:39:02.513Z,102037.94
2023-05-13T12:41:32.633Z,102040.44
2023-05-13T12:44:09.030Z,102033.16
2023-05-13T12:46:36.716Z,102023.16
2023-05-13T12:49:05.335Z,102028.09
2023-05-13T12:51:35.493Z,102025.00
2023-05-13T12:54:02.445Z,102002.50
2023-05-13T12:56:29.331Z,102012.81
2023-05-13T12:58:56.526Z,102022.25
2023-05-13T13:01:23.497Z,102020.06
2023-05-13T13:03:50.804Z,102014.59
2023-05-13T13:06:18.820Z,102014.72
2023-05-13T13:08:45.814Z,102009.59
2023-05-13T13:11:18.575Z,102017.78
2023-05-13T13:13:46.668Z,102015.50
2023-05-13T13:16:14.134Z,102003.22
2023-05-13T13:18:42.234Z,102004.31
2023-05-13T13:21:10.879Z,102007.66
2023-05-13T13:23:37.867Z,102005.63
2023-05-13T13:26:04.854Z,102007.09
2023-05-13T13:28:31.987Z,102003.25
2023-05-13T13:30:59.934Z,102006.66
2023-05-13T13:33:26.970Z,102000.41
2023-05-13T13:35:55.120Z,102009.00
2023-05-13T13:38:21.998Z,102008.91
2023-05-13T13:40:48.880Z,101999.09
2023-05-13T13:43:15.867Z,102008.94
2023-05-13T13:45:42.830Z,102002.97
2023-05-13T13:48:09.788Z,101999.59
2023-05-13T13:50:36.790Z,101992.59
2023-05-13T13:53:03.710Z,101993.53
2023-05-13T13:55:30.878Z,101980.22
2023-05-13T13:57:57.745Z,101992.44
2023-05-13T14:00:24.820Z,101998.31
2023-05-13T14:02:51.916Z,101988.28
2023-05-13T14:05:19.493Z,101992.34
2023-05-13T14:07:48.284Z,101986.78
2023-05-13T14:10:15.351Z,101978.56
2023-05-13T14:12:42.336Z,101976.56
2023-05-13T14:15:09.511Z,101987.13
2023-05-13T14:17:36.465Z,101980.78
2023-05-13T14:20:03.977Z,101979.97
2023-05-13T14:22:30.879Z,101968.41
2023-05-13T14:24:58.989Z,101973.81
2023-05-13T14:27:25.923Z,101976.56
2023-05-13T14:29:52.850Z,101959.69
2023-05-13T14:32:19.735Z,101977.44
2023-05-13T14:34:46.624Z,101968.47
2023-05-13T14:37:13.520Z,101967.56
2023-05-13T14:39:40.598Z,101963.88
2023-05-13T14:42:07.522Z,101961.88
2023-05-13T14:44:34.433Z,101959.84
2023-05-13T14:47:01.415Z,101951.63
2023-05-13T14:49:28.450Z,101956.84
2023-05-13T14:51:55.555Z,101960.31
2023-05-13T14:54:22.459Z,101959.59
2023-05-13T14:56:50.457Z,101962.13
2023-05-13T14:59:17.355Z,101961.25
2023-05-13T15:01:44.744Z,101964.72
2023-05-13T15:04:11.658Z,101962.91
2023-05-13T15:06:39.008Z,101959.38
2023-05-13T15:09:07.045Z,101958.38
2023-05-13T15:11:33.954Z,101963.72
2023-05-13T15:14:02.165Z,101960.25
2023-05-13T15:16:29.079Z,101956.09
2023-05-13T15:18:56.227Z,101949.16
2023-05-13T15:21:23.242Z,101954.94
2023-05-13T15:23:50.217Z,101960.06
2023-05-13T15:26:17.125Z,101951.25
2023-05-13T15:28:44.015Z,101963.22
2023-05-13T15:31:10.968Z,101956.34
2023-05-13T15:33:37.917Z,101952.66
2023-05-13T15:36:06.149Z,101955.03
2023-05-13T15:38:33.105Z,101956.47
2023-05-13T15:41:00.361Z,101943.66
2023-05-13T15:43:28.311Z,101949.31
2023-05-13T15:45:55.363Z,101952.16
2023-05-13T15:48:22.456Z,101943.56
2023-05-13T15:50:49.346Z,101936.09
2023-05-13T15:53:16.245Z,101937.41
2023-05-13T15:55:43.132Z,101942.00
2023-05-13T15:58:10.013Z,101941.22
2023-05-13T16:00:36.934Z,101936.28
2023-05-13T16:03:04.013Z,101941.03
2023-05-13T16:05:31.019Z,101935.09
2023-05-13T16:07:57.985Z,101940.53
2023-05-13T16:10:25.078Z,101942.06
2023-05-13T16:12:52.278Z,101927.94
2023-05-13T16:15:19.191Z,101931.31
2023-05-13T16:17:46.169Z,101923.25
2023-05-13T16:20:13.519Z,101921.44
2023-05-13T16:22:40.676Z,101909.97
2023-05-13T16:25:09.987Z,101923.22
2023-05-13T16:27:39.209Z,101912.69
2023-05-13T16:30:07.446Z,101922.34
2023-05-13T16:32:35.039Z,101917.91
2023-05-13T16:35:03.241Z,101914.88
2023-05-13T16:37:34.471Z,101909.97
2023-05-13T16:40:01.389Z,101916.13
2023-05-13T16:42:28.292Z,101914.41
2023-05-13T16:44:55.253Z,101917.16
2023-05-13T16:47:22.214Z,101918.25
2023-05-13T16:49:50.203Z,101916.75
2023-05-13T16:52:17.183Z,101910.75
2023-05-13T16:54:44.673Z,101915.19
2023-05-13T16:57:11.713Z,101918.53
2023-05-13T16:59:38.590Z,101920.81
2023-05-13T17:02:06.153Z,101913.13
2023-05-13T17:04:33.996Z,101914.44
2023-05-13T17:07:01.372Z,101916.34
2023-05-13T17:09:30.904Z,101910.78
2023-05-13T17:11:57.956Z,101910.34
2023-05-13T17:14:25.318Z,101921.47
2023-05-13T17:16:52.460Z,101910.31
2023-05-13T17:19:19.709Z,101901.44
2023-05-13T17:21:47.098Z,101904.63
2023-05-13T17:24:13.977Z,101906.44
2023-05-13T17:26:40.879Z,101911.13
2023-05-13T17:29:07.901Z,101912.28
2023-05-13T17:31:34.826Z,101902.28
2023-05-13T17:34:01.743Z,101910.72
2023-05-13T17:36:28.678Z,101907.06
2023-05-13T17:38:55.611Z,101907.88
2023-05-13T17:41:22.568Z,101898.06
2023-05-13T17:43:49.466Z,101901.56
2023-05-13T17:46:16.408Z,101900.22
2023-05-13T17:48:43.500Z,101904.13
2023-05-13T17:51:11.153Z,101916.81
2023-05-13T17:53:38.070Z,101915.22
2023-05-13T17:56:05.682Z,101918.06
2023-05-13T17:58:32.635Z,101919.28
2023-05-13T18:00:59.515Z,101922.41
2023-05-13T18:03:26.750Z,101923.63
2023-05-13T18:05:53.737Z,101917.53
2023-05-13T18:08:20.821Z,101928.16
2023-05-13T18:10:48.533Z,101928.06
2023-05-13T18:13:15.725Z,101928.84
2023-05-13T18:15:42.635Z,101921.19
2023-05-13T18:18:09.919Z,101930.25
2023-05-13T18:20:37.574Z,101925.41
2023-05-13T18:23:04.493Z,101920.63
2023-05-13T18:25:32.714Z,101927.75
2023-05-13T18:28:00.531Z,101926.13
2023-05-13T18:30:28.243Z,101920.03
2023-05-13T18:32:56.289Z,101921.88
2023-05-13T18:35:24.305Z,101921.09
2023-05-13T18:37:51.261Z,101922.09
2023-05-13T18:40:18.731Z,101924.19
2023-05-13T18:42:45.622Z,101929.91
2023-05-13T18:45:12.530Z,101931.94
2023-05-13T18:47:39.416Z,101941.78
2023-05-13T18:50:06.741Z,101934.75
2023-05-13T18:52:33.860Z,101952.59
2023-05-13T18:55:05.051Z,101944.88
2023-05-13T18:57:31.946Z,101953.13
2023-05-13T18:59:58.890Z,101949.69
2023-05-13T19:02:26.235Z,101956.97
2023-05-13T19:04:53.426Z,101955.44
2023-05-13T19:07:20.357Z,101955.59
2023-05-13T19:09:48.370Z,101959.22
2023-05-13T19:12:15.276Z,101953.19
2023-05-13T19:14:42.433Z,101945.38
2023-05-13T19:17:09.387Z,101957.09
2023-05-13T19:19:36.523Z,101955.59
2023-05-13T19:22:03.633Z,101959.38
2023-05-13T19:24:30.519Z,101954.34
2023-05-13T19:26:57.401Z,101961.56
2023-05-13T19:29:24.279Z,101954.59
2023-05-13T19:31:51.165Z,101958.16
2023-05-13T19:34:18.060Z,101963.53
2023-05-13T19:36:46.366Z,101962.66
2023-05-13T19:39:13.248Z,101953.03
2023-05-13T19:41:40.146Z,101966.28
2023-05-13T19:44:07.290Z,101969.84
2023-05-13T19:46:34.236Z,101968.13
2023-05-13T19:49:01.167Z,101965.53
2023-05-13T19:51:28.054Z,101968.25
2023-05-13T19:53:54.969Z,101970.13
2023-05-13T19:56:21.874Z,101973.72
2023-05-13T19:58:49.010Z,101978.22
2023-05-13T20:01:15.944Z,101979.22
2023-05-13T20:03:43.006Z,101981.94
2023-05-13T20:06:10.075Z,101987.28
2023-05-13T20:08:38.269Z,101989.97
2023-05-13T20:11:05.137Z,101982.13
2023-05-13T20:13:32.487Z,101984.84
2023-05-13T20:15:59.351Z,101981.41
2023-05-13T20:18:26.266Z,101987.63
2023-05-13T20:20:53.670Z,101976.28
2023-05-13T20:23:21.035Z,101978.09
2023-05-13T20:25:47.909Z,101981.69
2023-05-13T20:28:14.849Z,101987.06
2023-05-13T20:30:44.878Z,101988.88
2023-05-13T20:33:12.871Z,101987.19
2023-05-13T20:35:39.711Z,101979.38
2023-05-13T20:38:06.920Z,101983.84
2023-05-13T20:40:33.841Z,101976.88
2023-05-13T20:43:01.573Z,101982.25
2023-05-13T20:45:28.697Z,101989.38
2023-05-13T20:47:59.362Z,101972.81
2023-05-13T20:50:27.655Z,101981.59
2023-05-13T20:52:55.459Z,101981.72
2023-05-13T20:55:22.589Z,101979.16
2023-05-13T20:57:51.052Z,101983.63
2023-05-13T21:00:18.223Z,101967.91
2023-05-13T21:02:45.712Z,101985.50
2023-05-13T21:05:12.835Z,101984.69
2023-05-13T21:07:39.815Z,101990.00
2023-05-13T21:10:07.925Z,101988.31
2023-05-13T21:12:34.772Z,101975.19
2023-05-13T21:15:01.636Z,101988.44
2023-05-13T21:17:28.531Z,101984.03
2023-05-13T21:19:55.431Z,101987.56
2023-05-13T21:22:22.321Z,101982.34
2023-05-13T21:24:50.142Z,101980.63
2023-05-13T21:27:16.984Z,101988.56
2023-05-13T21:29:43.870Z,101986.88
2023-05-13T21:32:11.933Z,101990.38
2023-05-13T21:34:38.902Z,101981.66
2023-05-13T21:37:05.934Z,101985.22
2023-05-13T21:39:32.842Z,101986.09
2023-05-13T21:42:00.662Z,101973.00
2023-05-13T21:44:28.921Z,101991.41
2023-05-13T21:46:55.874Z,101996.72
2023-05-13T21:49:22.872Z,101996.72
2023-05-13T21:51:49.852Z,101993.19
2023-05-13T21:54:18.167Z,101991.47
2023-05-13T21:56:45.207Z,101998.50
2023-05-13T21:59:12.115Z,101988.88
2023-05-13T22:01:39.032Z,101994.13
2023-05-13T22:04:05.960Z,101995.91
2023-05-13T22:06:33.517Z,101989.75
2023-05-13T22:09:01.277Z,101988.03
2023-05-13T22:11:28.233Z,101994.19
2023-05-13T22:13:55.147Z,101997.69
2023-05-13T22:16:22.303Z,102001.19
2023-05-13T22:18:50.877Z,101993.28
2023-05-13T22:21:17.835Z,101998.56
2023-05-13T22:23:44.716Z,102003.81
2023-05-13T22:26:12.030Z,102000.28
2023-05-13T22:28:39.032Z,102001.13
2023-05-13T22:31:05.920Z,102006.38
2023-05-13T22:33:32.802Z,102008.16
2023-05-13T22:35:59.689Z,102000.22
2023-05-13T22:38:26.596Z,102001.13
2023-05-13T22:40:53.473Z,102006.34
2023-05-13T22:43:20.393Z,102008.09
2023-05-13T22:45:47.291Z,102002.81
2023-05-13T22:48:15.076Z,102000.16
2023-05-13T22:50:41.964Z,101999.28
2023-05-13T22:53:08.848Z,101996.66
2023-05-13T22:55:35.750Z,101994.00
2023-05-13T22:58:02.713Z,101997.47
2023-05-13T23:00:29.607Z,101996.59
2023-05-13T23:02:57.460Z,101987.81
2023-05-13T23:05:24.390Z,101992.19
2023-05-13T23:07:51.273Z,102004.41
2023-05-13T23:10:18.195Z,101996.50
2023-05-13T23:12:45.077Z,101995.56
2023-05-13T23:15:14.275Z,101999.03
2023-05-13T23:17:41.228Z,101994.63
2023-05-13T23:20:08.877Z,101996.34
2023-05-13T23:22:35.894Z,101998.06
2023-05-13T23:25:03.680Z,101991.91
2023-05-13T23:27:31.498Z,101986.63
2023-05-13T23:29:59.216Z,101997.97
2023-05-13T23:32:26.477Z,101987.44
2023-05-13T23:34:53.404Z,101980.44
2023-05-13T23:37:21.813Z,101987.41
2023-05-13T23:39:48.723Z,101991.72
2023-05-13T23:42:16.438Z,101977.69
2023-05-13T23:44:43.334Z,101981.13
2023-05-13T23:47:11.030Z,101978.50
2023-05-13T23:49:38.193Z,101977.56
2023-05-13T23:52:05.463Z,101977.56
2023-05-13T23:54:32.395Z,101982.75
2023-05-13T23:56:59.286Z,101975.75
2023-05-13T23:59:26.324Z,101974.81
